Sunday, December 16, 2018, 10:15 AM EST
Back to Local

KDOV, Dover Air Force Base

Location: Dover, DE, United States Lat: 39.133
Local Time: 10:15 AM EST (15:15 GMT) Lon: -75.467
Time Zone: US/Eastern Elev: 29 ft

Show me the last for .
Show Coded

Time T Td Feel RH Dir Speed Gust Alt SLP Vis Weather Sky Remarks
2018-12-16 10:00 46 46 38 100 30° 14 23 29.83 29.84 2 RA BR OVC010 Variable visibility
2018-12-16 09:43 46 46 40 100 40° 14 - 29.84 29.85 3 -RA BR OVC010 None
2018-12-16 09:35 46 46 40 100 40° 15 - 29.84 29.85 1 +RA BR OVC010 Variable visibility
2018-12-16 09:33 46 46 40 100 40° 16 - 29.84 29.85 2 +RA BR OVC010 Variable visibility
2018-12-16 09:07 46 46 40 100 40° 15 - 29.85 29.86 10 -RA OVC010 None
2018-12-16 08:56 46 46 39 99 40° 15 22 29.85 29.86 10 OVC010 None
2018-12-16 07:56 46 46 40 99 50° 15 - 29.86 29.87 6 BR OVC009 1-hr Precip Total: 0.01"
2018-12-16 07:48 46 46 38 100 50° 16 23 29.86 29.87 5 BR OVC009 None
2018-12-16 07:40 46 46 38 100 40° 17 23 29.86 29.87 3 -RA BR OVC009 None
2018-12-16 07:16 46 46 38 100 40° 17 24 29.86 29.87 2 -RA BR OVC009 Variable visibility
2018-12-16 07:08 46 46 38 100 40° 16 24 29.87 29.88 3 -RA BR OVC009 None
2018-12-16 06:56 46 46 38 99 40° 20 - 29.87 29.88 2 -RA BR OVC008 Variable visibility
1-hr Precip Total: 0.02"
6-hr Precip Total (7am): 0.31"
24-hr Precip Total (7am): 1.52"
6-hr Min Temp (7am): 45.7°F
6-hr Max Temp (7am): 48.4°F
2018-12-16 06:48 46 46 40 100 40° 16 - 29.87 29.88 2 -RA BR OVC008 None
2018-12-16 06:40 46 46 39 100 40° 17 - 29.87 29.88 3 -RA BR OVC008 None
2018-12-16 06:30 46 46 40 100 40° 16 - 29.87 29.88 3 -RA BR SCT007 OVC010 None
2018-12-16 06:28 46 46 39 100 40° 17 - 29.87 29.88 3 -RA BR OVC010 None
2018-12-16 06:08 46 46 38 100 40° 16 23 29.87 29.88 2 -RA BR FEW007 OVC011 None
2018-12-16 05:56 46 46 37 99 40° 18 29 29.87 29.88 1 -RA BR FEW006 OVC011 1-hr Precip Total: 0.07"
2018-12-16 05:46 46 46 38 100 30° 15 26 29.87 29.88 1 RA BR SCT006 OVC011 Variable visibility
2018-12-16 05:38 46 46 38 100 30° 17 25 29.87 29.88 2 RA BR BKN007 OVC011 None
2018-12-16 05:28 46 46 38 100 40° 21 26 29.88 29.89 2 RA BR OVC008 None
2018-12-16 04:56 47 47 38 99 40° 20 25 29.88 29.89 5 -DZ BR OVC008 1-hr Precip Total: 0.04"
2018-12-16 04:50 46 46 38 100 40° 20 26 29.88 29.89 6 -DZ BR OVC008 None
2018-12-16 04:47 46 46 38 100 40° 21 26 29.88 29.89 5 BR OVC008 None
2018-12-16 04:46 46 46 38 100 50° 21 26 29.88 29.89 5 -DZ BR OVC008 None
2018-12-16 04:36 46 46 37 100 50° 22 29 29.88 29.89 3 -RA BR OVC007 None
2018-12-16 04:16 46 46 40 100 40° 16 - 29.89 29.90 3 -RA BR OVC006 None
2018-12-16 04:12 46 46 40 100 30° 16 - 29.90 29.91 2 RA BR OVC006 Variable visibility
2018-12-16 03:56 46 46 39 99 20° 10 20 29.90 29.91 5 -RA BR OVC006 1-hr Precip Total: 0.04"
6-hr Precip Total (4am): 0.18"
2018-12-16 03:36 46 46 39 100 30° 14 21 29.90 29.91 3 -RA BR OVC006 None
2018-12-16 03:06 46 46 38 100 40° 15 24 29.90 29.91 5 -RA BR OVC007 None
2018-12-16 02:56 46 46 39 99 40° 14 22 29.90 29.91 5 -RA BR OVC008 1-hr Precip Total: 0.04"
2018-12-16 02:26 46 46 38 100 50° 17 26 29.90 29.91 4 -RA BR OVC008 None
2018-12-16 02:16 46 46 37 100 50° 20 29 29.90 29.91 6 -RA BR BKN007 OVC012 None
2018-12-16 01:56 47 47 43 99 30° 10 - 29.91 29.92 4 -RA BR OVC006 1-hr Precip Total: 0.10"
2018-12-16 01:36 48 48 43 100 40° 14 - 29.90 29.91 3 -RA BR OVC005 None
2018-12-16 01:32 48 48 42 100 20° 13 17 29.89 29.90 2 +RA BR OVC006 Variable visibility
2018-12-16 00:56 49 49 45 100 50° 9 - 29.89 29.90 4 -RA BR OVC006 1-hr Precip Total: 0.31"
6-hr Precip Total (1am): 0.91"
6-hr Min Temp (1am): 48.6°F
6-hr Max Temp (1am): 51.3°F
2018-12-16 00:50 48 48 42 100 60° 7 18 29.90 29.91 3 -RA BR OVC006 None
2018-12-16 00:42 48 48 42 100 60° 13 18 29.90 29.91 2 RA BR OVC006 Variable visibility
2018-12-16 00:38 48 48 44 100 50° 10 - 29.90 29.91 1 +RA BR OVC006 Variable visibility
2018-12-16 00:26 48 48 45 100 50° 8 - 29.89 29.90 2 +RA BR OVC006 None
2018-12-16 00:16 50 50 47 100 60° 8 - 29.90 29.91 2 +RA BR OVC007 Variable visibility
2018-12-16 00:04 50 50 46 100 50° 9 - 29.90 29.91 4 -RA BR OVC007 None
2018-12-15 23:56 49 49 44 100 60° 13 - 29.90 29.91 2 +RA BR OVC008 1-hr Precip Total: 0.16"
24-hr Min Temp (12am): 47.7°F
24-hr Max Temp (12am): 53.6°F
2018-12-15 23:46 50 50 46 100 50° 10 - 29.91 29.92 2 +RA BR OVC008 Variable visibility
2018-12-15 23:30 50 50 45 100 40° 13 - 29.91 29.92 4 -RA BR OVC008 None
2018-12-15 23:10 50 50 44 100 40° 16 - 29.92 29.93 3 -RA BR OVC007 None
2018-12-15 23:00 50 50 44 100 40° 16 - 29.93 29.94 3 -RA BR OVC006 None
2018-12-15 22:56 50 50 45 100 50° 14 - 29.93 29.94 2 -RA BR OVC006 Variable visibility
1-hr Precip Total: 0.16"
2018-12-15 22:52 50 50 45 100 40° 13 - 29.93 29.94 2 -RA BR OVC006 Variable visibility
2018-12-15 22:40 50 50 46 100 50° 10 - 29.94 29.95 3 -RA BR OVC006 None
2018-12-15 22:28 50 50 46 100 50° 12 - 29.95 29.96 2 RA BR OVC006 None
2018-12-15 22:24 50 50 46 100 50° 12 - 29.95 29.96 1 RA BR OVC008 None
2018-12-15 22:08 50 50 45 100 60° 15 - 29.96 29.97 2 -RA BR OVC009 None
2018-12-15 22:00 50 50 44 100 50° 16 - 29.97 29.98 1 RA BR OVC008 None
2018-12-15 21:56 51 51 - 100 50° 16 - 29.97 29.98 2 RA BR OVC008 1-hr Precip Total: 0.15"
6-hr Precip Total (10pm): 0.28"
2018-12-15 21:48 50 50 45 100 50° 14 - 29.97 29.98 2 -RA BR OVC008 None
2018-12-15 21:38 50 50 45 100 50° 15 - 29.97 29.98 1 RA BR OVC007 None
2018-12-15 21:34 50 50 45 100 40° 15 - 29.98 29.99 2 -RA BR OVC007 None
2018-12-15 21:04 50 50 43 100 50° 15 22 29.98 29.99 2 RA BR OVC009 None
2018-12-15 20:56 50 50 - 100 40° 14 - 29.98 29.99 1 RA BR OVC007 Variable visibility
1-hr Precip Total: 0.11"
2018-12-15 20:50 50 50 45 100 40° 15 - 29.99 30.00 1 RA BR OVC005 Variable visibility
2018-12-15 20:42 50 50 45 100 40° 13 - 29.99 30.00 2 -RA BR OVC004 None
2018-12-15 20:38 50 50 45 100 50° 14 - 29.99 30.00 3 -RA BR OVC004 None
2018-12-15 20:06 50 50 46 100 40° 12 - 30.00 30.01 5 -RA BR OVC004 None
2018-12-15 19:56 51 51 - 100 50° 15 - 30.00 30.01 5 -RA BR OVC003 1-hr Precip Total: 0.02"
2018-12-15 19:32 52 52 - 100 40° 14 - 29.99 30.00 3 -RA BR OVC003 None
2018-12-15 19:02 52 52 - 100 60° 15 - 30.00 30.01 4 -DZ BR OVC004 None
2018-12-15 19:00 52 52 - 100 60° 15 - 30.00 30.01 3 BR OVC004 None
2018-12-15 18:56 51 51 - 100 50° 16 - 30.00 30.01 2 BR OVC004 1-hr Precip Total: Trace
6-hr Precip Total (7pm): 0.13"
6-hr Min Temp (7pm): 49.6°F
6-hr Max Temp (7pm): 53.4°F
2018-12-15 18:36 52 52 - 100 40° 15 18 30.00 30.01 2 BR OVC003 None
2018-12-15 18:06 50 50 46 100 20° 12 - 30.00 30.01 2 BR OVC002 Variable visibility
2018-12-15 18:04 50 50 46 100 20° 12 - 30.00 30.01 2 -DZ BR OVC002 Variable visibility
Pressure rising rapidly
2018-12-15 17:56 50 50 46 100 50° 12 - 29.98 29.99 1 -RA BR OVC002 Variable visibility
1-hr Precip Total: Trace
2018-12-15 17:54 50 50 43 100 50° 13 23 29.98 29.99 1 -RA BR OVC002 Variable visibility
2018-12-15 17:50 50 50 43 100 60° 15 23 29.97 29.98 1 -RA BR OVC002 None
2018-12-15 17:49 50 50 43 100 50° 16 23 29.96 29.97 1 BR VV002 None
2018-12-15 17:45 50 50 44 100 50° 18 - 29.95 29.96 0 BR VV002 None
2018-12-15 17:41 50 50 43 100 50° 21 - 29.94 29.95 0 BR VV002 Variable visibility
2018-12-15 17:37 50 50 44 100 60° 18 - 29.94 29.95 0 BR VV002 Variable visibility
Pressure falling rapidly
2018-12-15 17:33 50 50 44 100 60° 16 - 29.96 29.97 1 BR OVC003 Variable visibility
Pressure falling rapidly
2018-12-15 17:25 52 52 - 100 50° 17 - 29.98 29.99 2 BR OVC003 None
2018-12-15 17:21 52 52 - 100 50° 14 - 29.99 30.00 3 BR OVC003 None
2018-12-15 17:11 52 52 - 100 40° 12 - 29.99 30.00 4 BR OVC004 Pressure rising rapidly
2018-12-15 16:56 51 51 - 100 70° 18 26 29.97 29.98 5 -RA BR OVC004 1-hr Precip Total: 0.03"
2018-12-15 16:36 52 52 - 100 60° 13 - 29.99 30.00 6 -RA BR OVC004 None
2018-12-15 15:56 52 52 - 100 50° 13 - 29.99 30.00 4 -DZ BR OVC006 1-hr Precip Total: 0.01"
6-hr Precip Total (4pm): 0.10"
2018-12-15 15:18 52 52 - 100 40° 13 - 30.00 30.01 10 -RA OVC007 None
2018-12-15 15:16 52 52 - 100 30° 10 - 30.00 30.01 10 OVC007 None
2018-12-15 15:06 52 52 - 100 40° 13 - 29.99 30.00 10 OVC008 None
2018-12-15 14:56 52 52 - 100 40° 13 - 29.98 29.99 10 OVC007 1-hr Precip Total: 0.01"
2018-12-15 14:34 52 52 - 100 40° 16 - 29.97 29.98 10 SCT003 OVC007 Pressure falling rapidly
2018-12-15 14:24 52 52 - 100 40° 15 - 29.99 30.00 10 SCT003 OVC005 None
2018-12-15 14:14 52 52 - 100 30° 14 - 29.99 30.00 10 SCT003 OVC007 Pressure rising rapidly
2018-12-15 13:56 53 53 - 100 30° 15 - 29.97 29.98 4 -RA BR SCT003 OVC007 1-hr Precip Total: 0.08"
2018-12-15 13:52 54 54 - 100 30° 18 - 29.96 29.97 4 -RA BR OVC007 Pressure falling rapidly
2018-12-15 13:24 52 52 - 100 20° 14 - 30.02 30.03 2 RA BR OVC006 Variable visibility
2018-12-15 12:56 53 53 - 100 20° 14 - 30.01 30.02 4 -RA BR OVC006 1-hr Precip Total: 0.07"
6-hr Precip Total (1pm): 0.17"
6-hr Min Temp (1pm): 52.0°F
6-hr Max Temp (1pm): 53.6°F
2018-12-15 12:44 54 54 - 100 20° 14 - 30.01 30.02 3 -RA BR OVC006 None
2018-12-15 12:34 54 54 - 100 20° 13 - 30.02 30.03 2 RA BR OVC005 Variable visibility
2018-12-15 12:26 54 54 - 100 20° 14 - 30.01 30.02 4 -RA BR OVC005 None
2018-12-15 12:16 54 54 - 100 20° 15 - 30.02 30.03 4 -RA BR OVC004 None
2018-12-15 11:56 53 53 - 100 10° 13 - 30.02 30.03 5 -RA BR OVC003 1-hr Precip Total: 0.03"
2018-12-15 11:54 54 54 - 100 10° 15 - 30.02 30.03 5 -RA BR OVC003 None
2018-12-15 11:44 54 54 - 100 10° 13 - 30.02 30.03 6 -RA BR OVC002 None
2018-12-15 11:34 54 54 - 100 10° 13 - 30.02 30.03 3 -RA BR OVC001 None
2018-12-15 11:26 54 54 - 100 10° 13 - 30.02 30.03 2 RA BR OVC001 Variable visibility
2018-12-15 11:22 54 54 - 100 20° 13 - 30.02 30.03 1 -RA BR OVC001 Variable visibility
2018-12-15 11:18 54 54 - 100 20° 12 - 30.02 30.03 1 -RA BR OVC001 Variable visibility
2018-12-15 11:14 54 54 - 100 20° 12 - 30.03 30.04 1 -RA BR VV001 None
2018-12-15 11:10 54 54 - 100 20° 12 - 30.03 30.04 0 -RA BR VV001 None
2018-12-15 11:00 54 54 - 100 10° 10 - 30.04 30.05 0 BR VV001 None
2018-12-15 10:56 53 53 - 100 20° 10 - 30.04 30.05 0 FG VV001 1-hr Precip Total: 0.01"
2018-12-15 10:51 54 54 - 100 20° 12 - 30.04 30.05 0 FG VV001 Variable visibility
2018-12-15 10:49 54 54 - 100 20° 10 - 30.04 30.05 0 -RA BR VV001 None
2018-12-15 10:45 54 54 - 100 20° 10 - 30.04 30.05 0 -RA BR VV002 None
2018-12-15 10:41 54 54 - 100 30° 12 - 30.04 30.05 1 -RA BR VV002 None
2018-12-15 10:31 54 54 - 100 30° 12 - 30.05 30.06 1 -RA BR OVC002 None
2018-12-15 10:26 54 54 - 100 50° 14 - 30.05 30.06 1 -RA BR VV002 None
2018-12-15 10:21 54 54 - 100 50° 13 - 30.05 30.06 1 -RA BR OVC002 None
2018-12-15 10:16 54 54 - 100 60° 12 - 30.05 30.06 1 -RA BR VV002 None

Support USWX by starting your Amazon purchase here.